Time;durP1;ratioP1;P1;durP2;ratioP2;P2;SDS_P1;SDS_P2;PMS_P1;PMS_P2;Temp;Humidity;BMP_temperature;BMP_pressure;BME280_temperature;BME280_humidity;BME280_pressure;Samples;Min_cycle;Max_cycle;Signal;HPM_P1;HPM_P2
2023/05/02 00:00:11;;;;;;;8.82;5.40;;;;;;;;;;5035483;28;20625;-74
2023/05/02 00:02:37;;;;;;;11.13;5.68;;;;;;;;;;5035490;28;20037;-75
2023/05/02 00:05:02;;;;;;;8.95;5.30;;;;;;;;;;5037113;28;20029;-75
2023/05/02 00:07:27;;;;;;;7.85;4.90;;;;;;;;;;5036710;28;20029;-74
2023/05/02 00:09:53;;;;;;;7.93;4.95;;;;;;;;;;5035432;28;20021;-75
2023/05/02 00:12:19;;;;;;;8.45;5.22;;;;;;;;;;5037296;28;20104;-75
2023/05/02 00:14:44;;;;;;;12.80;5.57;;;;;;;;;;5037096;28;20048;-75
2023/05/02 00:17:16;;;;;;;9.88;4.93;;;;;;;;;;5035435;28;20511;-75
2023/05/02 00:19:41;;;;;;;8.98;4.95;;;;;;;;;;5036564;28;20041;-75
2023/05/02 00:22:06;;;;;;;11.63;5.45;;;;;;;;;;5036382;28;20052;-75
2023/05/02 00:24:32;;;;;;;9.15;5.00;;;;;;;;;;5036430;28;20033;-74
2023/05/02 00:26:57;;;;;;;8.57;5.53;;;;;;;;;;5036201;28;20053;-74
2023/05/02 00:29:22;;;;;;;8.37;5.07;;;;;;;;;;5036478;28;20025;-74
2023/05/02 00:31:47;;;;;;;8.60;5.10;;;;;;;;;;5036384;28;20259;-74
2023/05/02 00:34:12;;;;;;;8.90;5.70;;;;;;;;;;5036551;28;20261;-74
2023/05/02 00:36:38;;;;;;;7.47;4.93;;;;;;;;;;5036566;28;20021;-74
2023/05/02 00:39:03;;;;;;;9.47;4.97;;;;;;;;;;5036724;28;20254;-74
2023/05/02 00:41:28;;;;;;;9.77;5.28;;;;;;;;;;5035362;28;20246;-74
2023/05/02 00:43:54;;;;;;;8.70;5.50;;;;;;;;;;5035748;28;20025;-74
2023/05/02 00:46:19;;;;;;;9.30;5.53;;;;;;;;;;5036118;28;20021;-74
2023/05/02 00:48:44;;;;;;;7.40;5.03;;;;;;;;;;5036117;28;20308;-73
2023/05/02 00:51:12;;;;;;;12.45;5.32;;;;;;;;;;5036537;28;20445;-75
2023/05/02 00:53:37;;;;;;;9.50;5.10;;;;;;;;;;5036446;28;20100;-74
2023/05/02 00:56:03;;;;;;;11.10;5.40;;;;;;;;;;5036305;28;20045;-75
2023/05/02 00:58:29;;;;;;;8.13;5.28;;;;;;;;;;5036217;28;20034;-75
2023/05/02 01:01:02;;;;;;;8.52;5.50;;;;;;;;;;5036612;28;20021;-75
2023/05/02 01:03:38;;;;;;;8.80;5.63;;;;;;;;;;5036196;28;20036;-75
2023/05/02 01:06:10;;;;;;;7.57;5.35;;;;;;;;;;5034914;28;20028;-75
2023/05/02 01:08:49;;;;;;;9.98;5.18;;;;;;;;;;5035824;28;20503;-75
2023/05/02 01:11:21;;;;;;;10.98;5.38;;;;;;;;;;5034567;28;20029;-75
2023/05/02 01:13:47;;;;;;;8.32;5.63;;;;;;;;;;5034844;28;20404;-75
2023/05/02 01:16:13;;;;;;;9.90;5.35;;;;;;;;;;5034679;28;20022;-75
2023/05/02 01:18:41;;;;;;;8.52;5.45;;;;;;;;;;5034464;28;20112;-75
2023/05/02 01:21:08;;;;;;;11.23;6.07;;;;;;;;;;5035735;28;20425;-75
2023/05/02 01:23:45;;;;;;;8.48;5.13;;;;;;;;;;5035339;28;20059;-75
2023/05/02 01:26:19;;;;;;;8.18;5.40;;;;;;;;;;5035542;28;20017;-75
2023/05/02 01:29:02;;;;;;;8.55;5.60;;;;;;;;;;5036440;28;20510;-75
2023/05/02 01:31:31;;;;;;;10.85;5.60;;;;;;;;;;5035218;28;20446;-75
2023/05/02 01:33:59;;;;;;;7.57;5.38;;;;;;;;;;5035549;28;20021;-74
2023/05/02 01:36:29;;;;;;;9.82;5.57;;;;;;;;;;5035449;28;20096;-75
2023/05/02 01:38:56;;;;;;;10.68;6.05;;;;;;;;;;5034300;28;20025;-75
2023/05/02 01:41:25;;;;;;;10.57;5.82;;;;;;;;;;5036235;28;20388;-75
2023/05/02 01:43:52;;;;;;;11.35;5.85;;;;;;;;;;5034291;28;20112;-74
2023/05/02 01:46:19;;;;;;;9.57;6.07;;;;;;;;;;5034336;28;20399;-75
2023/05/02 01:48:46;;;;;;;9.55;5.97;;;;;;;;;;5035548;28;20049;-75
2023/05/02 01:51:16;;;;;;;9.85;6.05;;;;;;;;;;5034251;28;20588;-75
2023/05/02 01:53:43;;;;;;;13.68;6.10;;;;;;;;;;5034269;28;20115;-75
2023/05/02 01:56:08;;;;;;;10.25;5.63;;;;;;;;;;5034162;28;20022;-75
2023/05/02 01:58:35;;;;;;;10.55;5.60;;;;;;;;;;5035290;28;20047;-75
2023/05/02 02:01:02;;;;;;;8.07;5.53;;;;;;;;;;5037189;28;20029;-75
2023/05/02 02:03:29;;;;;;;9.48;6.38;;;;;;;;;;5039703;28;20033;-75
2023/05/02 02:05:55;;;;;;;8.70;5.72;;;;;;;;;;5038138;28;20025;-75
2023/05/02 02:08:21;;;;;;;8.70;5.85;;;;;;;;;;5039624;28;20099;-75
2023/05/02 02:10:52;;;;;;;12.57;6.20;;;;;;;;;;5038156;28;20033;-75
2023/05/02 02:13:27;;;;;;;8.13;5.45;;;;;;;;;;5039520;28;20354;-74
2023/05/02 02:15:58;;;;;;;8.48;5.70;;;;;;;;;;5039200;28;20029;-75
2023/05/02 02:18:25;;;;;;;7.85;5.38;;;;;;;;;;5038006;28;20120;-75
2023/05/02 02:20:52;;;;;;;8.38;5.00;;;;;;;;;;5038760;28;20057;-75
2023/05/02 02:23:20;;;;;;;10.52;5.18;;;;;;;;;;5037443;28;20025;-75
2023/05/02 02:25:46;;;;;;;8.25;5.07;;;;;;;;;;5038703;28;20052;-74
2023/05/02 02:28:11;;;;;;;11.13;5.82;;;;;;;;;;5039222;28;20480;-75
2023/05/02 02:30:36;;;;;;;12.13;5.57;;;;;;;;;;5037494;28;20029;-75
2023/05/02 02:33:02;;;;;;;7.63;5.10;;;;;;;;;;5039027;28;20133;-74
2023/05/02 02:35:34;;;;;;;10.63;5.47;;;;;;;;;;5037526;28;20017;-74
2023/05/02 02:38:13;;;;;;;7.95;5.10;;;;;;;;;;5038630;28;20029;-75
2023/05/02 02:41:05;;;;;;;8.30;5.32;;;;;;;;;;5038820;28;20021;-75
2023/05/02 02:44:12;;;;;;;9.32;5.53;;;;;;;;;;5038341;28;20067;-74
2023/05/02 02:47:01;;;;;;;10.13;5.40;;;;;;;;;;5031264;28;20055;-74
2023/05/02 02:49:38;;;;;;;7.20;5.25;;;;;;;;;;5037255;28;20060;-74
2023/05/02 02:52:14;;;;;;;8.13;4.82;;;;;;;;;;5038508;28;20032;-75
2023/05/02 02:54:48;;;;;;;10.65;5.32;;;;;;;;;;5038368;28;20105;-74
2023/05/02 02:57:36;;;;;;;10.23;5.88;;;;;;;;;;5038449;28;20029;-74
2023/05/02 03:00:21;;;;;;;9.00;5.90;;;;;;;;;;5038159;28;20033;-74
2023/05/02 03:02:47;;;;;;;9.32;6.18;;;;;;;;;;5037175;28;20026;-74
2023/05/02 03:05:14;;;;;;;8.50;5.38;;;;;;;;;;5038248;28;20037;-74
2023/05/02 03:07:39;;;;;;;9.38;5.75;;;;;;;;;;5036466;28;20018;-74
2023/05/02 03:10:06;;;;;;;12.50;6.13;;;;;;;;;;5037422;28;20171;-74
2023/05/02 03:12:31;;;;;;;7.95;5.50;;;;;;;;;;5038292;28;20025;-73
2023/05/02 03:15:23;;;;;;;11.50;5.30;;;;;;;;;;5038033;28;20044;-74
2023/05/02 03:17:48;;;;;;;8.18;4.72;;;;;;;;;;5037902;28;20017;-74
2023/05/02 03:20:13;;;;;;;8.68;5.07;;;;;;;;;;5036902;28;20094;-74
2023/05/02 03:22:38;;;;;;;8.37;5.23;;;;;;;;;;5036335;28;20032;-75
2023/05/02 03:25:04;;;;;;;9.40;4.87;;;;;;;;;;5037103;28;20275;-75
2023/05/02 03:27:30;;;;;;;10.10;5.35;;;;;;;;;;5037184;28;20281;-75
2023/05/02 03:29:55;;;;;;;9.07;5.22;;;;;;;;;;5037453;28;20433;-74
2023/05/02 03:32:21;;;;;;;7.13;4.87;;;;;;;;;;5037513;28;20029;-74
2023/05/02 03:34:46;;;;;;;9.27;5.10;;;;;;;;;;5037857;28;20318;-74
2023/05/02 03:37:11;;;;;;;9.07;4.97;;;;;;;;;;5037302;28;20267;-74
2023/05/02 03:39:36;;;;;;;8.00;4.83;;;;;;;;;;5038137;28;20277;-74
2023/05/02 03:42:02;;;;;;;10.20;5.00;;;;;;;;;;5038189;28;20270;-73
2023/05/02 03:44:27;;;;;;;8.27;4.78;;;;;;;;;;5038349;28;20261;-74
2023/05/02 03:46:52;;;;;;;6.60;4.38;;;;;;;;;;5037218;28;20029;-74
2023/05/02 03:49:18;;;;;;;8.23;4.83;;;;;;;;;;5036348;28;20125;-74
2023/05/02 03:51:43;;;;;;;6.70;4.15;;;;;;;;;;5036812;28;20298;-75
2023/05/02 03:54:09;;;;;;;6.88;4.43;;;;;;;;;;5037784;28;20104;-75
2023/05/02 03:56:34;;;;;;;10.93;4.82;;;;;;;;;;5037224;28;20030;-75
2023/05/02 03:59:00;;;;;;;8.73;4.75;;;;;;;;;;5036058;28;20025;-75
2023/05/02 04:01:25;;;;;;;7.32;4.40;;;;;;;;;;5036362;28;20025;-75
2023/05/02 04:03:51;;;;;;;9.70;4.57;;;;;;;;;;5035739;28;20416;-75
2023/05/02 04:06:16;;;;;;;9.95;4.63;;;;;;;;;;5035388;28;20481;-75
2023/05/02 04:08:42;;;;;;;7.13;4.68;;;;;;;;;;5035447;28;20051;-75
2023/05/02 04:11:07;;;;;;;9.05;4.88;;;;;;;;;;5035318;28;20025;-75
2023/05/02 04:13:32;;;;;;;8.30;4.80;;;;;;;;;;5034032;28;20032;-75
2023/05/02 04:15:58;;;;;;;6.15;4.68;;;;;;;;;;5035553;28;20026;-74
2023/05/02 04:18:23;;;;;;;8.38;4.53;;;;;;;;;;5033986;28;20112;-74
2023/05/02 04:20:49;;;;;;;6.90;4.35;;;;;;;;;;5035079;28;20386;-74
2023/05/02 04:23:14;;;;;;;6.95;4.50;;;;;;;;;;5034686;28;20025;-74
2023/05/02 04:25:39;;;;;;;11.88;4.53;;;;;;;;;;5035374;28;20030;-74
2023/05/02 04:28:05;;;;;;;6.88;4.90;;;;;;;;;;5034076;28;20497;-74
2023/05/02 04:30:30;;;;;;;7.15;4.30;;;;;;;;;;5035429;28;20028;-74
2023/05/02 04:32:55;;;;;;;9.17;4.43;;;;;;;;;;5034088;28;20033;-74
2023/05/02 04:35:21;;;;;;;8.32;4.20;;;;;;;;;;5035277;28;20338;-74
2023/05/02 04:37:46;;;;;;;6.15;3.80;;;;;;;;;;5034975;28;20025;-74
2023/05/02 04:40:12;;;;;;;6.60;4.33;;;;;;;;;;5035481;28;20068;-74
2023/05/02 04:42:37;;;;;;;7.63;4.65;;;;;;;;;;5034790;28;20286;-74
2023/05/02 04:45:02;;;;;;;7.18;3.90;;;;;;;;;;5035031;28;20075;-74
2023/05/02 04:47:28;;;;;;;6.95;4.20;;;;;;;;;;5034805;28;20057;-74
2023/05/02 04:49:53;;;;;;;6.87;4.00;;;;;;;;;;5035144;28;20084;-74
2023/05/02 04:52:18;;;;;;;6.27;3.80;;;;;;;;;;5035132;28;20264;-75
2023/05/02 04:54:43;;;;;;;8.35;3.80;;;;;;;;;;5033904;28;20262;-74
2023/05/02 04:57:09;;;;;;;7.63;4.17;;;;;;;;;;5034663;28;20029;-74
2023/05/02 04:59:34;;;;;;;8.02;4.20;;;;;;;;;;5035662;28;20312;-74
2023/05/02 05:02:00;;;;;;;7.07;4.05;;;;;;;;;;5035936;28;20028;-74
2023/05/02 05:04:25;;;;;;;5.13;3.63;;;;;;;;;;5034789;28;20028;-74
2023/05/02 05:06:50;;;;;;;5.97;3.73;;;;;;;;;;5034266;28;20025;-74
2023/05/02 05:09:15;;;;;;;6.10;4.00;;;;;;;;;;5033552;28;20341;-74
2023/05/02 05:11:42;;;;;;;9.80;4.13;;;;;;;;;;5034600;28;20439;-75
2023/05/02 05:14:08;;;;;;;7.50;4.07;;;;;;;;;;5034716;28;20760;-74
2023/05/02 05:16:33;;;;;;;6.97;3.90;;;;;;;;;;5033915;28;20025;-75
2023/05/02 05:18:58;;;;;;;6.65;4.22;;;;;;;;;;5034110;28;20026;-74
2023/05/02 05:21:24;;;;;;;10.70;4.03;;;;;;;;;;5035832;28;20028;-75
2023/05/02 05:23:49;;;;;;;7.97;3.83;;;;;;;;;;5035776;28;20044;-75
2023/05/02 05:26:15;;;;;;;6.43;3.83;;;;;;;;;;5035209;28;20278;-75
2023/05/02 05:28:41;;;;;;;11.20;3.88;;;;;;;;;;5035410;28;20259;-75
2023/05/02 05:31:07;;;;;;;6.57;3.80;;;;;;;;;;5035700;28;20018;-74
2023/05/02 05:33:37;;;;;;;6.72;3.72;;;;;;;;;;5036280;28;20021;-75
2023/05/02 05:36:13;;;;;;;7.32;3.63;;;;;;;;;;5034126;28;20026;-74
2023/05/02 05:38:39;;;;;;;8.02;4.10;;;;;;;;;;5034851;28;20025;-75
2023/05/02 05:41:05;;;;;;;9.05;3.42;;;;;;;;;;5033215;28;20049;-75
2023/05/02 05:43:30;;;;;;;8.73;3.92;;;;;;;;;;5034756;28;20549;-75
2023/05/02 05:45:56;;;;;;;5.63;3.53;;;;;;;;;;5034192;28;20026;-74
2023/05/02 05:48:22;;;;;;;6.38;3.88;;;;;;;;;;5034699;28;20029;-75
2023/05/02 05:50:47;;;;;;;7.82;4.00;;;;;;;;;;5034330;28;20068;-75
2023/05/02 05:53:13;;;;;;;7.20;3.45;;;;;;;;;;5034633;28;20048;-75
2023/05/02 05:55:38;;;;;;;7.60;3.58;;;;;;;;;;5034033;28;20033;-74
2023/05/02 05:58:04;;;;;;;5.68;3.15;;;;;;;;;;5033002;28;20576;-74
2023/05/02 06:00:32;;;;;;;7.15;3.40;;;;;;;;;;5034320;28;20060;-74
2023/05/02 06:02:57;;;;;;;7.15;4.20;;;;;;;;;;5034385;28;20032;-74
2023/05/02 06:05:23;;;;;;;5.30;3.37;;;;;;;;;;5034148;28;20033;-74
2023/05/02 06:07:48;;;;;;;6.67;3.30;;;;;;;;;;5034139;28;20318;-74
2023/05/02 06:10:13;;;;;;;6.07;3.73;;;;;;;;;;5033416;28;20251;-74
2023/05/02 06:12:38;;;;;;;7.05;3.40;;;;;;;;;;5033866;28;20250;-75
2023/05/02 06:15:04;;;;;;;6.20;3.63;;;;;;;;;;5034249;28;20068;-74
2023/05/02 06:17:30;;;;;;;7.30;3.75;;;;;;;;;;5033023;28;20266;-74
2023/05/02 06:19:55;;;;;;;4.75;3.13;;;;;;;;;;5034365;28;20029;-74
2023/05/02 06:22:20;;;;;;;7.65;3.30;;;;;;;;;;5034524;28;20042;-74
2023/05/02 06:24:45;;;;;;;6.20;3.50;;;;;;;;;;5034112;28;20112;-76
2023/05/02 06:27:11;;;;;;;6.28;3.22;;;;;;;;;;5034481;28;20357;-74
2023/05/02 06:29:36;;;;;;;5.77;3.07;;;;;;;;;;5034715;28;20584;-74
2023/05/02 06:32:01;;;;;;;6.60;3.53;;;;;;;;;;5033438;28;20302;-74
2023/05/02 06:34:26;;;;;;;7.27;3.27;;;;;;;;;;5033086;28;20811;-74
2023/05/02 06:36:57;;;;;;;7.72;3.33;;;;;;;;;;5034020;28;20733;-74
2023/05/02 06:39:23;;;;;;;5.75;3.35;;;;;;;;;;5032981;28;20412;-74
2023/05/02 06:41:48;;;;;;;7.65;3.03;;;;;;;;;;5034289;28;20026;-74
2023/05/02 06:44:13;;;;;;;10.93;3.60;;;;;;;;;;5035220;28;20028;-75
2023/05/02 06:46:38;;;;;;;6.50;2.93;;;;;;;;;;5035538;28;20373;-74
2023/05/02 06:49:03;;;;;;;9.23;3.17;;;;;;;;;;5039014;28;20324;-74
2023/05/02 06:51:29;;;;;;;5.28;3.15;;;;;;;;;;5037370;28;20266;-74
2023/05/02 06:53:54;;;;;;;4.78;3.00;;;;;;;;;;5037941;28;20041;-75
2023/05/02 06:56:19;;;;;;;5.00;2.70;;;;;;;;;;5037209;28;20469;-73
2023/05/02 06:58:44;;;;;;;7.30;2.77;;;;;;;;;;5037155;28;20619;-74
2023/05/02 07:01:11;;;;;;;7.75;3.50;;;;;;;;;;5036919;28;20258;-75
2023/05/02 07:03:36;;;;;;;6.60;3.17;;;;;;;;;;5036851;28;20029;-75
2023/05/02 07:06:01;;;;;;;5.77;3.03;;;;;;;;;;5036532;28;20029;-75
2023/05/02 07:08:26;;;;;;;7.67;3.10;;;;;;;;;;5038733;28;20357;-74
2023/05/02 07:10:52;;;;;;;7.30;3.17;;;;;;;;;;5037887;28;20258;-75
2023/05/02 07:13:17;;;;;;;6.30;3.10;;;;;;;;;;5037322;28;20255;-75
2023/05/02 07:15:42;;;;;;;4.03;2.85;;;;;;;;;;5037041;28;20122;-75
2023/05/02 07:18:07;;;;;;;4.72;2.72;;;;;;;;;;5036795;28;20021;-74
2023/05/02 07:20:33;;;;;;;4.67;2.87;;;;;;;;;;5036205;28;20033;-75
2023/05/02 07:22:58;;;;;;;5.20;2.80;;;;;;;;;;5037614;28;20317;-75
2023/05/02 07:25:23;;;;;;;3.93;2.87;;;;;;;;;;5038393;28;20353;-75
2023/05/02 07:27:48;;;;;;;8.30;3.17;;;;;;;;;;5037623;28;20358;-75
2023/05/02 07:30:14;;;;;;;5.00;2.50;;;;;;;;;;5037572;28;20033;-75
2023/05/02 07:32:39;;;;;;;4.50;2.80;;;;;;;;;;5036701;28;20257;-75
2023/05/02 07:35:05;;;;;;;6.33;2.60;;;;;;;;;;5035844;28;20017;-75
2023/05/02 07:37:34;;;;;;;5.15;2.95;;;;;;;;;;5037256;28;20251;-74
2023/05/02 07:39:59;;;;;;;4.18;2.60;;;;;;;;;;5035652;28;20029;-75
2023/05/02 07:42:31;;;;;;;5.85;2.78;;;;;;;;;;5037179;28;20436;-75
2023/05/02 07:44:57;;;;;;;5.50;2.80;;;;;;;;;;5036350;28;20021;-75
2023/05/02 07:47:22;;;;;;;4.13;2.72;;;;;;;;;;5036014;28;20041;-75
2023/05/02 07:49:55;;;;;;;3.87;2.80;;;;;;;;;;5036622;28;20111;-74
2023/05/02 07:52:20;;;;;;;4.97;2.35;;;;;;;;;;5037004;28;20326;-75
2023/05/02 07:54:49;;;;;;;8.07;2.78;;;;;;;;;;5036263;28;20060;-74
2023/05/02 07:57:14;;;;;;;4.55;2.90;;;;;;;;;;5036366;28;20148;-75
2023/05/02 07:59:40;;;;;;;7.53;2.83;;;;;;;;;;5034262;28;20060;-74
2023/05/02 08:02:05;;;;;;;6.22;3.25;;;;;;;;;;5036069;28;20259;-74
2023/05/02 08:04:31;;;;;;;5.85;2.97;;;;;;;;;;5035876;28;20392;-74
2023/05/02 08:06:56;;;;;;;4.30;3.00;;;;;;;;;;5036195;28;20033;-73
2023/05/02 08:09:21;;;;;;;4.23;3.13;;;;;;;;;;5034948;28;20258;-74
2023/05/02 08:11:47;;;;;;;5.78;3.35;;;;;;;;;;5036117;28;20346;-74
2023/05/02 08:14:14;;;;;;;5.63;3.25;;;;;;;;;;5034695;28;20033;-74
2023/05/02 08:16:40;;;;;;;5.47;3.58;;;;;;;;;;5034533;28;20018;-74
2023/05/02 08:19:05;;;;;;;5.75;3.38;;;;;;;;;;5036131;28;20070;-74
2023/05/02 08:21:31;;;;;;;5.85;3.38;;;;;;;;;;5035674;28;20050;-74
2023/05/02 08:23:57;;;;;;;6.18;2.42;;;;;;;;;;5035396;28;20029;-74
2023/05/02 08:26:23;;;;;;;4.63;3.13;;;;;;;;;;5035421;28;20052;-74
2023/05/02 08:28:50;;;;;;;6.38;2.83;;;;;;;;;;5034114;28;20489;-73
2023/05/02 08:31:15;;;;;;;7.18;3.10;;;;;;;;;;5034487;28;20420;-74
2023/05/02 08:33:40;;;;;;;6.05;2.80;;;;;;;;;;5036756;28;20021;-73
2023/05/02 08:36:13;;;;;;;7.35;3.60;;;;;;;;;;5036303;28;20032;-74
2023/05/02 08:38:38;;;;;;;5.80;3.08;;;;;;;;;;5035390;28;20388;-74
2023/05/02 08:41:17;;;;;;;4.13;2.90;;;;;;;;;;5036152;28;20028;-75
2023/05/02 08:43:43;;;;;;;5.50;3.15;;;;;;;;;;5034964;28;20025;-75
2023/05/02 08:46:10;;;;;;;5.20;3.28;;;;;;;;;;5034796;28;20025;-74
2023/05/02 08:48:37;;;;;;;8.40;2.70;;;;;;;;;;5036268;28;20025;-74
2023/05/02 08:51:03;;;;;;;3.97;2.67;;;;;;;;;;5035446;28;20032;-74
2023/05/02 08:53:33;;;;;;;5.82;3.08;;;;;;;;;;5035907;28;20370;-74
2023/05/02 08:55:59;;;;;;;8.95;3.15;;;;;;;;;;5035028;28;20030;-74
2023/05/02 08:58:24;;;;;;;7.80;3.40;;;;;;;;;;5035219;28;20489;-74
2023/05/02 09:00:51;;;;;;;4.65;3.10;;;;;;;;;;5035149;28;20029;-75
2023/05/02 09:03:31;;;;;;;4.65;2.92;;;;;;;;;;5034175;28;20025;-74
2023/05/02 09:06:11;;;;;;;5.43;3.10;;;;;;;;;;5034994;28;20042;-75
2023/05/02 09:08:38;;;;;;;4.07;2.97;;;;;;;;;;5034793;28;20112;-74
2023/05/02 09:11:04;;;;;;;5.35;3.28;;;;;;;;;;5034907;28;20101;-74
2023/05/02 09:13:32;;;;;;;5.32;3.10;;;;;;;;;;5033686;28;20112;-74
2023/05/02 09:15:59;;;;;;;4.47;3.00;;;;;;;;;;5034045;28;20452;-74
2023/05/02 09:18:30;;;;;;;3.95;2.38;;;;;;;;;;5034998;28;20029;-75
2023/05/02 09:20:57;;;;;;;4.13;2.35;;;;;;;;;;5035286;28;20116;-75
2023/05/02 09:23:33;;;;;;;3.80;2.63;;;;;;;;;;5034796;28;20063;-74
2023/05/02 09:26:00;;;;;;;4.40;2.33;;;;;;;;;;5034924;28;20029;-74
2023/05/02 09:28:38;;;;;;;4.30;2.30;;;;;;;;;;5035284;28;20108;-74
2023/05/02 09:31:09;;;;;;;5.95;3.40;;;;;;;;;;5033572;28;20036;-74
2023/05/02 09:33:35;;;;;;;4.40;2.70;;;;;;;;;;5035402;28;20128;-74
2023/05/02 09:36:00;;;;;;;5.65;2.80;;;;;;;;;;5034452;28;20017;-75
2023/05/02 09:38:25;;;;;;;4.32;3.28;;;;;;;;;;5033481;28;20037;-74
2023/05/02 09:40:54;;;;;;;6.00;3.23;;;;;;;;;;5033711;28;20041;-74
2023/05/02 09:43:20;;;;;;;5.72;3.70;;;;;;;;;;5033951;28;20258;-74
2023/05/02 09:45:59;;;;;;;4.10;2.95;;;;;;;;;;5034934;28;20065;-74
2023/05/02 09:48:26;;;;;;;5.28;3.70;;;;;;;;;;5033708;28;20468;-74
2023/05/02 09:50:52;;;;;;;8.02;3.75;;;;;;;;;;5033339;28;20051;-73
2023/05/02 09:53:17;;;;;;;8.80;3.85;;;;;;;;;;5033126;28;20025;-75
2023/05/02 09:55:42;;;;;;;5.57;3.78;;;;;;;;;;5033854;28;20391;-74
2023/05/02 09:58:20;;;;;;;8.25;4.07;;;;;;;;;;5032994;28;20029;-74
2023/05/02 10:00:45;;;;;;;5.30;4.07;;;;;;;;;;5033828;28;20025;-75
2023/05/02 10:03:15;;;;;;;6.33;3.97;;;;;;;;;;5034380;28;20389;-75
2023/05/02 10:05:41;;;;;;;8.10;4.03;;;;;;;;;;5034638;28;20263;-75
2023/05/02 10:08:08;;;;;;;7.43;4.50;;;;;;;;;;5033252;28;20117;-75
2023/05/02 10:10:39;;;;;;;9.80;4.00;;;;;;;;;;5034457;28;20022;-73
2023/05/02 10:13:07;;;;;;;6.03;4.18;;;;;;;;;;5034306;28;20067;-74
2023/05/02 10:15:35;;;;;;;7.90;4.28;;;;;;;;;;5034890;28;20484;-75
2023/05/02 10:18:07;;;;;;;8.40;4.18;;;;;;;;;;5034396;28;20033;-74
2023/05/02 10:20:35;;;;;;;8.60;4.72;;;;;;;;;;5033227;28;20036;-75
2023/05/02 10:23:01;;;;;;;9.60;4.88;;;;;;;;;;5037917;28;20029;-73
2023/05/02 10:25:27;;;;;;;6.20;4.32;;;;;;;;;;5037027;28;20033;-75
2023/05/02 10:27:56;;;;;;;9.02;5.03;;;;;;;;;;5038037;28;20029;-75
2023/05/02 10:30:21;;;;;;;8.75;5.32;;;;;;;;;;5037078;28;20483;-75
2023/05/02 10:32:48;;;;;;;10.80;4.88;;;;;;;;;;5038454;28;20025;-75
2023/05/02 10:35:14;;;;;;;9.48;4.97;;;;;;;;;;5037739;28;20139;-75
2023/05/02 10:37:40;;;;;;;7.95;4.93;;;;;;;;;;5037899;28;20092;-75
2023/05/02 10:40:10;;;;;;;7.28;4.63;;;;;;;;;;5037798;28;20060;-74
2023/05/02 10:42:39;;;;;;;7.60;4.47;;;;;;;;;;5036811;28;20119;-75
2023/05/02 10:45:09;;;;;;;7.95;5.00;;;;;;;;;;5037670;28;20026;-74
2023/05/02 10:47:35;;;;;;;9.23;4.90;;;;;;;;;;5037715;28;20032;-74
2023/05/02 10:50:02;;;;;;;8.57;5.05;;;;;;;;;;5036299;28;20102;-74
2023/05/02 10:52:28;;;;;;;8.07;5.40;;;;;;;;;;5036331;28;20396;-74
2023/05/02 10:55:16;;;;;;;7.75;5.35;;;;;;;;;;5037253;28;20083;-74
2023/05/02 10:57:57;;;;;;;10.23;5.30;;;;;;;;;;5037759;28;20022;-74
2023/05/02 11:00:28;;;;;;;10.43;4.97;;;;;;;;;;5035947;28;20029;-74
2023/05/02 11:02:53;;;;;;;8.07;5.50;;;;;;;;;;5035930;28;20509;-74
2023/05/02 11:05:21;;;;;;;10.15;5.88;;;;;;;;;;5037328;28;20044;-74
2023/05/02 11:07:46;;;;;;;9.90;5.20;;;;;;;;;;5037340;28;20022;-72
2023/05/02 11:10:21;;;;;;;9.50;5.75;;;;;;;;;;5036136;28;20481;-75
2023/05/02 11:12:51;;;;;;;8.07;5.43;;;;;;;;;;5036249;28;20036;-73
2023/05/02 11:15:26;;;;;;;9.65;5.50;;;;;;;;;;5035914;28;20033;-74
2023/05/02 11:18:11;;;;;;;10.55;5.80;;;;;;;;;;5036737;28;20040;-75
2023/05/02 11:20:38;;;;;;;8.68;6.15;;;;;;;;;;5037270;28;20062;-74
2023/05/02 11:23:13;;;;;;;10.88;6.40;;;;;;;;;;5037385;28;20026;-75
2023/05/02 11:25:40;;;;;;;10.88;5.88;;;;;;;;;;5036875;28;20113;-75
2023/05/02 11:28:07;;;;;;;10.82;5.88;;;;;;;;;;5036755;28;20083;-74
2023/05/02 11:30:40;;;;;;;9.48;6.35;;;;;;;;;;5036406;28;20481;-75
2023/05/02 11:33:06;;;;;;;10.25;6.28;;;;;;;;;;5036747;28;20036;-75
2023/05/02 11:35:34;;;;;;;9.13;5.70;;;;;;;;;;5036519;28;20021;-75
2023/05/02 11:38:10;;;;;;;15.63;6.05;;;;;;;;;;5036210;28;20022;-74
2023/05/02 11:40:35;;;;;;;8.85;5.90;;;;;;;;;;5034765;28;20045;-73
2023/05/02 11:43:12;;;;;;;8.57;5.25;;;;;;;;;;5036448;28;20072;-74
2023/05/02 11:45:41;;;;;;;9.25;4.63;;;;;;;;;;5036435;28;20025;-73
2023/05/02 11:48:07;;;;;;;8.40;5.10;;;;;;;;;;5036073;28;20021;-74
2023/05/02 11:50:40;;;;;;;8.68;4.68;;;;;;;;;;5035996;28;20404;-74
2023/05/02 11:53:09;;;;;;;10.15;5.43;;;;;;;;;;5036690;28;20025;-74
2023/05/02 11:55:34;;;;;;;8.73;5.72;;;;;;;;;;5035434;28;20032;-74
2023/05/02 11:58:00;;;;;;;8.32;5.38;;;;;;;;;;5036905;28;20073;-74
2023/05/02 12:00:26;;;;;;;7.47;5.03;;;;;;;;;;5037394;28;20021;-74
2023/05/02 12:02:52;;;;;;;8.18;4.68;;;;;;;;;;5038213;28;20032;-74
2023/05/02 12:05:28;;;;;;;7.73;4.60;;;;;;;;;;5038588;28;20381;-75
2023/05/02 12:07:53;;;;;;;7.30;4.97;;;;;;;;;;5038682;28;20286;-74
2023/05/02 12:10:18;;;;;;;7.27;5.10;;;;;;;;;;5038466;28;20021;-74
2023/05/02 12:12:43;;;;;;;9.07;5.30;;;;;;;;;;5038898;28;20262;-75
2023/05/02 12:15:10;;;;;;;9.70;5.27;;;;;;;;;;5038374;28;20258;-75
2023/05/02 12:17:39;;;;;;;10.73;5.20;;;;;;;;;;5037425;28;20349;-74
2023/05/02 12:20:06;;;;;;;9.35;5.43;;;;;;;;;;5038896;28;20025;-74
2023/05/02 12:22:32;;;;;;;9.45;5.50;;;;;;;;;;5039139;28;20477;-75
2023/05/02 12:24:57;;;;;;;9.95;6.18;;;;;;;;;;5038415;28;20079;-75
2023/05/02 12:27:23;;;;;;;9.40;5.18;;;;;;;;;;5038454;28;20041;-74
2023/05/02 12:29:48;;;;;;;10.00;5.47;;;;;;;;;;5039114;28;20079;-74
2023/05/02 12:32:15;;;;;;;6.78;5.28;;;;;;;;;;5039099;28;20173;-74
2023/05/02 12:34:40;;;;;;;10.38;5.20;;;;;;;;;;5039454;28;20026;-74
2023/05/02 12:37:07;;;;;;;10.73;5.07;;;;;;;;;;5038519;28;20021;-75
2023/05/02 12:39:37;;;;;;;8.48;5.10;;;;;;;;;;5036896;28;20025;-74
2023/05/02 12:42:13;;;;;;;8.75;5.38;;;;;;;;;;5037300;28;20037;-74
2023/05/02 12:44:40;;;;;;;8.20;5.43;;;;;;;;;;5036371;28;20026;-74
2023/05/02 12:47:07;;;;;;;9.25;5.25;;;;;;;;;;5037799;28;20082;-74
2023/05/02 12:49:32;;;;;;;9.95;5.60;;;;;;;;;;5038663;28;20103;-74
2023/05/02 12:51:58;;;;;;;7.28;4.97;;;;;;;;;;5038886;28;20476;-74
2023/05/02 12:54:25;;;;;;;6.97;5.05;;;;;;;;;;5037722;28;20075;-74
2023/05/02 12:56:51;;;;;;;9.07;5.38;;;;;;;;;;5037890;28;20392;-74
2023/05/02 12:59:31;;;;;;;7.15;4.50;;;;;;;;;;5037974;28;20032;-74
2023/05/02 13:01:57;;;;;;;6.20;5.03;;;;;;;;;;5036961;28;20048;-74
2023/05/02 13:04:36;;;;;;;7.90;4.47;;;;;;;;;;5038248;28;20108;-74
2023/05/02 13:07:01;;;;;;;6.18;4.90;;;;;;;;;;5036961;28;20159;-74
2023/05/02 13:09:26;;;;;;;7.03;5.07;;;;;;;;;;5037965;28;20496;-74
2023/05/02 13:11:53;;;;;;;6.97;4.90;;;;;;;;;;5038431;28;20032;-74
2023/05/02 13:14:18;;;;;;;10.43;4.95;;;;;;;;;;5036715;28;20052;-74
2023/05/02 13:16:43;;;;;;;6.75;4.65;;;;;;;;;;5037783;28;20021;-74
2023/05/02 13:19:08;;;;;;;7.67;5.10;;;;;;;;;;5037684;28;20065;-74
2023/05/02 13:21:34;;;;;;;7.70;5.03;;;;;;;;;;5037970;28;20255;-75
2023/05/02 13:23:59;;;;;;;5.97;4.32;;;;;;;;;;5037460;28;20029;-74
2023/05/02 13:26:24;;;;;;;6.13;4.47;;;;;;;;;;5037974;28;20048;-74
2023/05/02 13:28:50;;;;;;;6.43;4.93;;;;;;;;;;5036559;28;20036;-73
2023/05/02 13:31:15;;;;;;;7.60;5.20;;;;;;;;;;5035858;28;20263;-75
2023/05/02 13:33:40;;;;;;;8.48;5.18;;;;;;;;;;5036869;28;20025;-75
2023/05/02 13:36:06;;;;;;;8.37;4.83;;;;;;;;;;5036805;28;20026;-74
2023/05/02 13:38:31;;;;;;;7.55;4.88;;;;;;;;;;5037705;28;20261;-74
2023/05/02 13:40:56;;;;;;;6.05;4.22;;;;;;;;;;5037452;28;20029;-74
2023/05/02 13:43:23;;;;;;;7.13;4.35;;;;;;;;;;5037772;28;20029;-74
2023/05/02 13:45:48;;;;;;;7.35;4.45;;;;;;;;;;5037209;28;20026;-74
2023/05/02 13:48:14;;;;;;;7.05;4.50;;;;;;;;;;5035866;28;20112;-75
2023/05/02 13:50:40;;;;;;;6.88;4.60;;;;;;;;;;5037065;28;20405;-75
2023/05/02 13:53:05;;;;;;;6.90;4.38;;;;;;;;;;5036934;28;20029;-75
2023/05/02 13:55:30;;;;;;;7.18;4.15;;;;;;;;;;5036508;28;20031;-75
2023/05/02 13:57:55;;;;;;;7.93;5.43;;;;;;;;;;5035948;28;20014;-75
2023/05/02 14:00:21;;;;;;;9.10;5.03;;;;;;;;;;5035616;28;20266;-75
2023/05/02 14:02:47;;;;;;;7.97;5.37;;;;;;;;;;5036524;28;20473;-75
2023/05/02 14:05:12;;;;;;;14.25;5.90;;;;;;;;;;5036118;28;20670;-74
2023/05/02 14:07:38;;;;;;;7.50;5.60;;;;;;;;;;5036293;28;20079;-74
2023/05/02 14:10:03;;;;;;;9.53;5.63;;;;;;;;;;5036249;28;20108;-75
2023/05/02 14:12:28;;;;;;;8.77;5.82;;;;;;;;;;5034114;28;20626;-74
2023/05/02 14:14:54;;;;;;;7.97;5.80;;;;;;;;;;5035025;28;20148;-74
2023/05/02 14:17:20;;;;;;;8.43;6.37;;;;;;;;;;5033939;28;20283;-74
2023/05/02 14:19:45;;;;;;;10.25;6.35;;;;;;;;;;5034811;28;20258;-74
2023/05/02 14:22:10;;;;;;;8.70;6.15;;;;;;;;;;5033687;28;20109;-74
2023/05/02 14:24:35;;;;;;;13.03;7.33;;;;;;;;;;5034565;28;20030;-73
2023/05/02 14:27:01;;;;;;;11.57;6.80;;;;;;;;;;5034548;28;20328;-75
2023/05/02 14:29:26;;;;;;;9.45;6.38;;;;;;;;;;5033416;28;20258;-75
2023/05/02 14:31:51;;;;;;;9.17;6.60;;;;;;;;;;5034821;28;20034;-74
2023/05/02 14:34:17;;;;;;;10.07;6.28;;;;;;;;;;5034682;28;20294;-75
2023/05/02 14:36:42;;;;;;;12.90;6.68;;;;;;;;;;5032786;28;20029;-75
2023/05/02 14:39:07;;;;;;;12.43;6.30;;;;;;;;;;5034894;28;20021;-75
2023/05/02 14:41:32;;;;;;;12.03;6.67;;;;;;;;;;5034192;28;20259;-73